createdAt,value
2022-11-19T00:01:48.670Z,0.57
2022-11-19T00:04:15.175Z,0.35
2022-11-19T00:06:41.626Z,0.40
2022-11-19T00:09:08.030Z,0.35
2022-11-19T00:11:34.433Z,0.31
2022-11-19T00:14:00.851Z,0.42
2022-11-19T00:16:27.233Z,0.40
2022-11-19T00:18:53.628Z,0.58
2022-11-19T00:21:20.073Z,0.69
2022-11-19T00:23:46.545Z,0.65
2022-11-19T00:26:12.933Z,0.71
2022-11-19T00:28:39.324Z,0.78
2022-11-19T00:31:05.803Z,0.94
2022-11-19T00:33:32.500Z,0.85
2022-11-19T00:35:58.899Z,0.71
2022-11-19T00:38:25.613Z,0.76
2022-11-19T00:40:52.018Z,0.74
2022-11-19T00:43:18.542Z,0.86
2022-11-19T00:45:45.162Z,0.81
2022-11-19T00:48:11.600Z,0.96
2022-11-19T00:50:38.007Z,0.84
2022-11-19T00:53:04.408Z,0.86
2022-11-19T00:55:31.571Z,0.91
2022-11-19T00:57:58.014Z,1.11
2022-11-19T01:00:24.525Z,1.21
2022-11-19T01:02:50.927Z,1.25
2022-11-19T01:05:17.361Z,1.24
2022-11-19T01:07:43.762Z,1.12
2022-11-19T01:10:10.165Z,1.12
2022-11-19T01:12:36.565Z,1.18
2022-11-19T01:15:02.986Z,1.00
2022-11-19T01:17:29.504Z,1.05
2022-11-19T01:19:55.932Z,1.06
2022-11-19T01:22:22.365Z,0.97
2022-11-19T01:24:48.772Z,1.16
2022-11-19T01:27:15.171Z,1.41
2022-11-19T01:29:41.579Z,1.30
2022-11-19T01:32:08.002Z,1.21
2022-11-19T01:34:34.391Z,1.24
2022-11-19T01:37:00.763Z,1.15
2022-11-19T01:39:27.189Z,1.13
2022-11-19T01:41:53.568Z,1.16
2022-11-19T01:44:19.954Z,1.26
2022-11-19T01:46:46.367Z,1.29
2022-11-19T01:49:12.779Z,1.21
2022-11-19T01:51:39.187Z,1.52
2022-11-19T01:54:05.614Z,1.45
2022-11-19T01:56:32.006Z,1.39
2022-11-19T01:58:58.395Z,1.42
2022-11-19T02:01:24.951Z,1.42
2022-11-19T02:03:51.373Z,1.36
2022-11-19T02:06:17.865Z,1.37
2022-11-19T02:08:44.259Z,1.29
2022-11-19T02:11:10.643Z,1.31
2022-11-19T02:13:37.144Z,1.13
2022-11-19T02:16:03.535Z,1.22
2022-11-19T02:18:29.950Z,1.13
2022-11-19T02:20:56.405Z,1.08
2022-11-19T02:23:22.814Z,0.95
2022-11-19T02:25:49.278Z,0.99
2022-11-19T02:28:15.694Z,0.89
2022-11-19T02:30:42.088Z,1.07
2022-11-19T02:33:08.512Z,1.03
2022-11-19T02:35:34.946Z,1.21
2022-11-19T02:38:01.342Z,1.32
2022-11-19T02:40:27.726Z,1.38
2022-11-19T02:42:54.129Z,1.30
2022-11-19T02:45:20.548Z,1.21
2022-11-19T02:47:46.974Z,1.42
2022-11-19T02:50:13.436Z,1.55
2022-11-19T02:52:39.851Z,1.57
2022-11-19T02:55:06.269Z,1.35
2022-11-19T02:57:32.674Z,1.18
2022-11-19T02:59:59.114Z,1.18
2022-11-19T03:02:25.514Z,1.17
2022-11-19T03:04:51.920Z,1.33
2022-11-19T03:07:18.387Z,1.06
2022-11-19T03:09:44.869Z,1.07
2022-11-19T03:12:11.272Z,0.97
2022-11-19T03:14:37.692Z,1.09
2022-11-19T03:17:04.106Z,0.95
2022-11-19T03:19:30.542Z,0.95
2022-11-19T03:21:56.929Z,0.86
2022-11-19T03:24:23.343Z,0.90
2022-11-19T03:26:49.761Z,0.77
2022-11-19T03:29:16.188Z,0.69
2022-11-19T03:31:42.627Z,0.85
2022-11-19T03:34:09.075Z,1.01
2022-11-19T03:36:35.471Z,0.94
2022-11-19T03:39:01.872Z,1.08
2022-11-19T03:41:28.270Z,1.24
2022-11-19T03:43:54.714Z,1.13
2022-11-19T03:46:21.151Z,1.19
2022-11-19T03:48:47.533Z,1.37
2022-11-19T03:51:13.966Z,1.31
2022-11-19T03:53:40.358Z,1.84
2022-11-19T03:56:06.786Z,1.82
2022-11-19T03:58:33.198Z,1.51
2022-11-19T04:00:59.604Z,1.18
2022-11-19T04:03:26.022Z,1.00
2022-11-19T04:05:52.421Z,1.38
2022-11-19T04:08:18.835Z,1.27
2022-11-19T04:10:45.245Z,1.04
2022-11-19T04:13:11.677Z,1.24
2022-11-19T04:15:38.072Z,1.13
2022-11-19T04:18:04.505Z,1.03
2022-11-19T04:20:30.916Z,0.96
2022-11-19T04:22:57.324Z,1.08
2022-11-19T04:25:23.734Z,1.23
2022-11-19T04:27:50.108Z,1.30
2022-11-19T04:30:16.602Z,1.50
2022-11-19T04:32:42.981Z,1.35
2022-11-19T04:35:09.379Z,1.28
2022-11-19T04:37:35.782Z,1.42
2022-11-19T04:40:02.169Z,1.32
2022-11-19T04:42:28.573Z,2.03
2022-11-19T04:44:54.971Z,1.19
2022-11-19T04:47:21.361Z,1.27
2022-11-19T04:49:47.771Z,1.07
2022-11-19T04:52:14.171Z,1.17
2022-11-19T04:54:40.565Z,1.06
2022-11-19T04:57:06.968Z,1.19
2022-11-19T04:59:33.362Z,1.11
2022-11-19T05:01:59.832Z,1.12
2022-11-19T05:04:26.289Z,1.08
2022-11-19T05:06:52.730Z,1.10
2022-11-19T05:09:19.314Z,0.94
2022-11-19T05:11:45.846Z,0.92
2022-11-19T05:14:12.251Z,0.89
2022-11-19T05:16:38.636Z,0.90
2022-11-19T05:19:05.055Z,0.85
2022-11-19T05:21:31.427Z,0.98
2022-11-19T05:23:57.812Z,0.98
2022-11-19T05:26:24.210Z,0.88
2022-11-19T05:28:50.598Z,0.95
2022-11-19T05:31:17.001Z,0.89
2022-11-19T05:33:43.401Z,0.88
2022-11-19T05:36:09.809Z,1.43
2022-11-19T05:38:36.219Z,1.25
2022-11-19T05:41:02.658Z,0.88
2022-11-19T05:43:29.072Z,1.11
2022-11-19T05:45:55.483Z,1.42
2022-11-19T05:48:21.909Z,1.65
2022-11-19T05:50:48.328Z,1.57
2022-11-19T05:53:14.730Z,9.56
2022-11-19T05:55:41.137Z,105.41
2022-11-19T05:58:07.558Z,441.85
2022-11-19T06:00:33.974Z,307.40
2022-11-19T06:03:00.493Z,99.28
2022-11-19T06:05:26.980Z,32.76
2022-11-19T06:07:53.378Z,6.49
2022-11-19T06:10:19.799Z,2.54
2022-11-19T06:12:46.344Z,2.43
2022-11-19T06:15:12.765Z,2.80
2022-11-19T06:17:39.232Z,1.70
2022-11-19T06:20:05.705Z,1.58
2022-11-19T06:22:32.127Z,2.08
2022-11-19T06:24:58.636Z,2.99
2022-11-19T06:27:25.045Z,2.44
2022-11-19T06:29:56.080Z,1.84
2022-11-19T06:32:22.855Z,1.34
2022-11-19T06:34:49.237Z,1.15
2022-11-19T06:37:15.646Z,1.55
2022-11-19T06:39:42.079Z,1.55
2022-11-19T06:42:08.495Z,9.93
2022-11-19T06:44:34.998Z,17.06
2022-11-19T06:47:01.420Z,9.05
2022-11-19T06:49:27.846Z,3.87
2022-11-19T06:51:54.268Z,3.56
2022-11-19T06:54:20.681Z,2.63
2022-11-19T06:56:47.075Z,2.34
2022-11-19T06:59:13.508Z,2.80
2022-11-19T07:01:40.028Z,2.18
2022-11-19T07:04:06.497Z,2.40
2022-11-19T07:06:32.905Z,2.02
2022-11-19T07:09:00.525Z,1.96
2022-11-19T07:11:27.022Z,1.83
2022-11-19T07:13:53.439Z,1.81
2022-11-19T07:16:19.840Z,1.72
2022-11-19T07:18:46.237Z,1.98
2022-11-19T07:21:12.649Z,2.19
2022-11-19T07:23:39.054Z,3.63
2022-11-19T07:26:05.476Z,2.96
2022-11-19T07:28:31.884Z,2.40
2022-11-19T07:30:58.296Z,2.05
2022-11-19T07:33:24.879Z,2.15
2022-11-19T07:35:51.411Z,23.52
2022-11-19T07:38:17.840Z,49.47
2022-11-19T07:40:44.241Z,7.46
2022-11-19T07:43:10.666Z,3.13
2022-11-19T07:45:37.060Z,2.54
2022-11-19T07:48:03.520Z,2.35
2022-11-19T07:50:29.917Z,2.29
2022-11-19T07:52:56.323Z,2.69
2022-11-19T07:55:22.744Z,2.45
2022-11-19T07:57:49.228Z,2.77
2022-11-19T08:00:15.686Z,3.19
2022-11-19T08:02:42.159Z,3.11
2022-11-19T08:05:08.855Z,2.66
2022-11-19T08:07:35.345Z,2.63
2022-11-19T08:10:01.779Z,2.72
2022-11-19T08:12:28.162Z,3.94
2022-11-19T08:14:54.554Z,2.59
2022-11-19T08:17:20.965Z,2.84
2022-11-19T08:19:47.373Z,3.84
2022-11-19T08:22:13.773Z,6.68
2022-11-19T08:24:40.241Z,3.04
2022-11-19T08:27:06.662Z,2.59
2022-11-19T08:29:33.135Z,2.60
2022-11-19T08:31:59.581Z,2.58
2022-11-19T08:34:26.035Z,4.06
2022-11-19T08:36:52.460Z,3.20
2022-11-19T08:39:18.892Z,2.98
2022-11-19T08:41:45.313Z,2.76
2022-11-19T08:44:11.722Z,2.89
2022-11-19T08:46:38.132Z,3.00
2022-11-19T08:49:04.695Z,3.03
2022-11-19T08:51:31.084Z,4.30
2022-11-19T08:53:57.493Z,5.10
2022-11-19T08:56:23.955Z,1.94
2022-11-19T08:58:50.908Z,2.06
2022-11-19T09:01:17.374Z,1.97
2022-11-19T09:03:43.830Z,1.79
2022-11-19T09:06:10.211Z,2.02
2022-11-19T09:08:36.617Z,2.09
2022-11-19T09:11:03.016Z,1.92
2022-11-19T09:13:29.412Z,1.97
2022-11-19T09:15:55.798Z,1.93
2022-11-19T09:18:22.211Z,2.07
2022-11-19T09:20:48.656Z,1.98
2022-11-19T09:23:15.103Z,2.01
2022-11-19T09:25:41.512Z,2.06
2022-11-19T09:28:07.948Z,1.86
2022-11-19T09:30:34.339Z,2.02
2022-11-19T09:33:00.796Z,2.09
2022-11-19T09:35:27.210Z,2.04
2022-11-19T09:37:53.629Z,2.11
2022-11-19T09:40:20.154Z,2.28
2022-11-19T09:42:46.617Z,2.22
2022-11-19T09:45:13.031Z,2.04
2022-11-19T09:47:39.487Z,1.99
2022-11-19T09:50:07.004Z,1.80
2022-11-19T09:52:33.601Z,1.87
2022-11-19T09:55:01.187Z,2.03
2022-11-19T09:57:27.616Z,2.18
2022-11-19T09:59:54.053Z,2.12
2022-11-19T10:02:20.502Z,1.97
2022-11-19T10:04:46.889Z,1.87
2022-11-19T10:07:13.414Z,1.96
2022-11-19T10:09:39.858Z,1.95
2022-11-19T10:12:06.282Z,2.27
2022-11-19T10:14:32.717Z,2.30
2022-11-19T10:16:59.244Z,2.32
2022-11-19T10:19:25.704Z,2.24
2022-11-19T10:21:52.132Z,2.03
2022-11-19T10:24:18.802Z,2.32
2022-11-19T10:26:45.496Z,2.01
2022-11-19T10:29:12.006Z,2.01
2022-11-19T10:31:38.463Z,2.17
2022-11-19T10:34:05.632Z,2.18
2022-11-19T10:36:32.221Z,2.12
2022-11-19T10:39:00.813Z,2.23
2022-11-19T10:41:27.395Z,2.21
2022-11-19T10:43:53.819Z,2.18
2022-11-19T10:46:20.227Z,1.98
2022-11-19T10:48:46.633Z,2.02
2022-11-19T10:51:13.075Z,2.03
2022-11-19T10:53:39.499Z,2.05
2022-11-19T10:56:05.942Z,2.00
2022-11-19T10:58:32.364Z,2.01
2022-11-19T11:00:58.892Z,1.71
2022-11-19T11:03:25.340Z,1.81
2022-11-19T11:05:51.743Z,2.01
2022-11-19T11:08:18.223Z,1.87
2022-11-19T11:10:44.648Z,1.76
2022-11-19T11:13:11.087Z,1.89
2022-11-19T11:15:37.515Z,1.65
2022-11-19T11:18:04.025Z,2.09
2022-11-19T11:20:30.453Z,1.67
2022-11-19T11:22:56.876Z,1.63
2022-11-19T11:25:23.294Z,1.69
2022-11-19T11:27:50.607Z,1.63
2022-11-19T11:30:17.193Z,1.59
2022-11-19T11:32:44.047Z,1.60
2022-11-19T11:35:15.933Z,1.51
2022-11-19T11:37:42.630Z,1.53
2022-11-19T11:40:09.020Z,1.54
2022-11-19T11:42:35.411Z,1.42
2022-11-19T11:45:02.754Z,1.17
2022-11-19T11:47:29.330Z,1.49
2022-11-19T11:49:55.774Z,1.22
2022-11-19T11:52:22.184Z,1.37
2022-11-19T11:54:48.586Z,1.37
2022-11-19T11:57:16.700Z,1.08
2022-11-19T11:59:43.290Z,1.17
2022-11-19T12:02:09.912Z,1.22
2022-11-19T12:04:36.306Z,1.21
2022-11-19T12:07:02.754Z,1.11
2022-11-19T12:09:29.179Z,1.23
2022-11-19T12:11:56.223Z,1.21
2022-11-19T12:14:22.832Z,1.21
2022-11-19T12:16:49.396Z,1.27
2022-11-19T12:19:16.013Z,1.29
2022-11-19T12:21:43.583Z,1.31
2022-11-19T12:24:10.172Z,1.09
2022-11-19T12:26:36.773Z,1.28
2022-11-19T12:29:03.342Z,1.22
2022-11-19T12:31:30.277Z,1.34
2022-11-19T12:33:57.646Z,1.36
2022-11-19T12:36:24.068Z,1.37
2022-11-19T12:38:50.497Z,1.45
2022-11-19T12:41:16.957Z,1.36
2022-11-19T12:43:43.918Z,1.24
2022-11-19T12:46:10.478Z,1.31
2022-11-19T12:48:36.923Z,1.33
2022-11-19T12:51:03.341Z,1.21
2022-11-19T12:53:29.750Z,1.34
2022-11-19T12:55:56.857Z,1.34
2022-11-19T12:58:24.467Z,1.32
2022-11-19T13:00:51.088Z,1.42
2022-11-19T13:03:18.647Z,1.17
2022-11-19T13:05:45.549Z,1.57
2022-11-19T13:08:11.992Z,2.52
2022-11-19T13:10:38.418Z,2.65
2022-11-19T13:13:04.845Z,2.17
2022-11-19T13:15:31.528Z,2.01
2022-11-19T13:17:58.000Z,1.67
2022-11-19T13:20:24.441Z,1.47
2022-11-19T13:22:50.881Z,1.17
2022-11-19T13:25:18.341Z,1.06
2022-11-19T13:27:44.937Z,1.18
2022-11-19T13:30:11.564Z,1.36
2022-11-19T13:32:38.148Z,1.50
2022-11-19T13:35:04.743Z,1.22
2022-11-19T13:37:31.754Z,1.35
2022-11-19T13:39:58.932Z,1.37
2022-11-19T13:42:25.842Z,1.16
2022-11-19T13:44:52.274Z,1.02
2022-11-19T13:47:18.732Z,0.99
2022-11-19T13:49:45.133Z,0.95
2022-11-19T13:52:11.550Z,0.88
2022-11-19T13:54:37.961Z,0.83
2022-11-19T13:57:04.386Z,0.93
2022-11-19T13:59:30.808Z,1.13
2022-11-19T14:01:57.239Z,1.12
2022-11-19T14:04:23.681Z,1.14
2022-11-19T14:06:50.114Z,1.11
2022-11-19T14:09:16.933Z,1.15
2022-11-19T14:11:43.661Z,1.13
2022-11-19T14:14:11.245Z,1.04
2022-11-19T14:16:38.855Z,1.99
2022-11-19T14:19:07.440Z,1.18
2022-11-19T14:21:36.037Z,0.98
2022-11-19T14:24:02.638Z,1.02
2022-11-19T14:26:30.220Z,0.94
2022-11-19T14:28:57.830Z,1.11
2022-11-19T14:31:24.446Z,1.25
2022-11-19T14:33:52.033Z,1.20
2022-11-19T14:36:18.606Z,1.26
2022-11-19T14:38:45.201Z,1.26
2022-11-19T14:41:13.793Z,1.29
2022-11-19T14:43:41.387Z,1.33
2022-11-19T14:46:08.968Z,1.19
2022-11-19T14:48:35.593Z,1.33
2022-11-19T14:51:03.147Z,1.19
2022-11-19T14:53:37.729Z,1.26
2022-11-19T14:56:05.378Z,1.38
2022-11-19T14:58:37.637Z,1.10
2022-11-19T15:01:05.684Z,1.18
2022-11-19T15:03:37.393Z,1.32
2022-11-19T15:06:04.841Z,2.40
2022-11-19T15:08:33.431Z,1.57
2022-11-19T15:11:36.423Z,1.72
2022-11-19T15:13:59.870Z,1.48
2022-11-19T15:16:29.381Z,1.78
2022-11-19T15:18:56.956Z,1.50
2022-11-19T15:21:23.589Z,0.84
2022-11-19T15:23:51.156Z,0.91
2022-11-19T15:26:19.784Z,1.24
2022-11-19T15:28:48.516Z,1.45
2022-11-19T15:31:16.951Z,1.28
2022-11-19T15:33:44.540Z,1.40
2022-11-19T15:36:12.126Z,1.36
2022-11-19T15:38:39.725Z,1.38
2022-11-19T15:41:08.758Z,1.45
2022-11-19T15:43:36.030Z,1.81
2022-11-19T15:46:03.494Z,1.33
2022-11-19T15:48:32.090Z,1.52
2022-11-19T15:51:01.161Z,1.08
2022-11-19T15:53:29.303Z,1.05
2022-11-19T15:55:55.880Z,1.23
2022-11-19T15:58:24.471Z,1.67
2022-11-19T16:00:54.105Z,1.22
2022-11-19T16:08:55.413Z,1.58
2022-11-19T16:11:22.603Z,1.35
2022-11-19T16:13:49.036Z,1.19
2022-11-19T16:16:15.798Z,1.20
2022-11-19T16:18:43.482Z,1.22
2022-11-19T16:21:10.037Z,1.20
2022-11-19T16:23:37.646Z,1.51
2022-11-19T16:26:04.302Z,1.35
2022-11-19T16:28:31.814Z,1.50
2022-11-19T16:30:58.251Z,1.34
2022-11-19T16:33:24.997Z,1.35
2022-11-19T16:35:53.521Z,1.50
2022-11-19T16:38:21.187Z,1.78
2022-11-19T16:40:47.787Z,3.02
2022-11-19T16:43:14.379Z,2.73
2022-11-19T16:45:40.953Z,3.42
2022-11-19T16:48:08.555Z,1.48
2022-11-19T16:50:35.139Z,0.92
2022-11-19T16:53:01.731Z,0.76
2022-11-19T16:55:28.529Z,1.03
2022-11-19T16:57:54.935Z,1.14
2022-11-19T17:00:21.376Z,1.32
2022-11-19T17:02:47.799Z,1.71
2022-11-19T17:05:14.689Z,1.74
2022-11-19T17:07:41.182Z,2.12
2022-11-19T17:10:07.860Z,2.17
2022-11-19T17:12:34.470Z,1.89
2022-11-19T17:15:00.893Z,1.86
2022-11-19T17:17:27.640Z,1.85
2022-11-19T17:19:54.369Z,1.69
2022-11-19T17:22:21.835Z,1.69
2022-11-19T17:24:48.430Z,1.97
2022-11-19T17:27:16.002Z,2.25
2022-11-19T17:29:42.456Z,2.38
2022-11-19T17:32:08.881Z,2.28
2022-11-19T17:34:35.295Z,1.79
2022-11-19T17:37:01.719Z,1.67
2022-11-19T17:39:28.131Z,1.86
2022-11-19T17:41:54.579Z,1.81
2022-11-19T17:44:21.225Z,1.72
2022-11-19T17:46:47.756Z,1.42
2022-11-19T17:49:14.356Z,1.46
2022-11-19T17:51:40.737Z,1.45
2022-11-19T17:54:07.196Z,1.64
2022-11-19T17:56:33.631Z,1.76
2022-11-19T17:59:00.024Z,2.19
2022-11-19T18:01:26.610Z,1.95
2022-11-19T18:03:53.111Z,2.30
2022-11-19T18:06:20.523Z,1.59
2022-11-19T18:08:46.985Z,1.63
2022-11-19T18:11:13.684Z,1.29
2022-11-19T18:13:40.270Z,1.41
2022-11-19T18:16:06.703Z,1.21
2022-11-19T18:18:33.470Z,1.32
2022-11-19T18:21:02.177Z,1.56
2022-11-19T18:23:29.669Z,1.30
2022-11-19T18:25:56.248Z,1.45
2022-11-19T18:28:22.842Z,1.72
2022-11-19T18:30:49.463Z,1.79
2022-11-19T18:33:16.076Z,1.57
2022-11-19T18:35:42.513Z,34.91
2022-11-19T18:38:09.231Z,35.25
2022-11-19T18:40:35.824Z,1.45
2022-11-19T18:43:03.412Z,1.28
2022-11-19T18:45:30.019Z,1.45
2022-11-19T18:47:56.645Z,1.68
2022-11-19T18:50:29.354Z,1.62
2022-11-19T18:52:56.824Z,1.66
2022-11-19T18:55:24.418Z,1.51
2022-11-19T18:57:52.007Z,1.42
2022-11-19T19:00:18.605Z,1.57
2022-11-19T19:02:45.350Z,1.70
2022-11-19T19:05:12.917Z,1.83
2022-11-19T19:07:39.591Z,1.52
2022-11-19T19:10:06.124Z,1.61
2022-11-19T19:12:32.557Z,1.47
2022-11-19T19:14:58.958Z,1.32
2022-11-19T19:17:25.441Z,1.62
2022-11-19T19:19:51.882Z,1.52
2022-11-19T19:22:19.091Z,1.69
2022-11-19T19:24:46.675Z,1.61
2022-11-19T19:27:13.271Z,1.70
2022-11-19T19:29:39.704Z,2.82
2022-11-19T19:32:06.154Z,1.69
2022-11-19T19:34:32.643Z,1.45
2022-11-19T19:36:59.624Z,1.84
2022-11-19T19:39:26.182Z,1.41
2022-11-19T19:41:52.813Z,1.37
2022-11-19T19:44:19.412Z,1.38
2022-11-19T19:46:46.010Z,1.39
2022-11-19T19:49:12.597Z,1.59
2022-11-19T19:51:39.032Z,1.46
2022-11-19T19:54:05.446Z,1.53
2022-11-19T19:56:31.892Z,1.75
2022-11-19T19:58:58.334Z,1.47
2022-11-19T20:01:24.836Z,2.06
2022-11-19T20:03:54.447Z,2.20
2022-11-19T20:06:21.771Z,1.99
2022-11-19T20:08:48.354Z,2.51
2022-11-19T20:11:15.080Z,2.52
2022-11-19T20:13:42.650Z,1.59
2022-11-19T20:16:14.586Z,4.57
2022-11-19T20:18:44.870Z,6.74
2022-11-19T20:21:11.465Z,2.25
2022-11-19T20:23:39.057Z,1.06
2022-11-19T20:26:07.634Z,0.94
2022-11-19T20:28:34.247Z,1.04
2022-11-19T20:31:00.839Z,0.99
2022-11-19T20:33:28.450Z,1.32
2022-11-19T20:35:55.052Z,1.44
2022-11-19T20:38:22.643Z,1.01
2022-11-19T20:40:49.238Z,1.01
2022-11-19T20:43:15.654Z,1.16
2022-11-19T20:45:42.443Z,1.34
2022-11-19T20:48:09.030Z,1.23
2022-11-19T20:50:35.608Z,1.14
2022-11-19T20:53:02.225Z,1.24
2022-11-19T20:55:28.798Z,1.20
2022-11-19T20:57:56.410Z,1.22
2022-11-19T21:00:22.996Z,1.42
2022-11-19T21:02:49.438Z,1.89
2022-11-19T21:05:16.169Z,1.59
2022-11-19T21:07:42.651Z,1.51
2022-11-19T21:10:09.332Z,1.71
2022-11-19T21:12:36.946Z,1.71
2022-11-19T21:15:04.541Z,1.88
2022-11-19T21:17:31.333Z,1.71
2022-11-19T21:19:57.755Z,1.71
2022-11-19T21:22:24.798Z,1.84
2022-11-19T21:24:51.908Z,1.71
2022-11-19T21:27:19.505Z,1.79
2022-11-19T21:29:46.580Z,1.48
2022-11-19T21:32:13.673Z,1.60
2022-11-19T21:34:41.283Z,1.55
2022-11-19T21:37:08.885Z,1.82
2022-11-19T21:39:36.477Z,1.75
2022-11-19T21:42:03.048Z,1.68
2022-11-19T21:44:29.652Z,1.67
2022-11-19T21:46:58.226Z,1.80
2022-11-19T21:49:24.841Z,1.65
2022-11-19T21:51:52.424Z,1.71
2022-11-19T21:54:19.018Z,1.73
2022-11-19T21:56:46.598Z,1.74
2022-11-19T21:59:13.190Z,1.42
2022-11-19T22:01:39.768Z,1.63
2022-11-19T22:04:07.393Z,1.49
2022-11-19T22:06:34.969Z,1.43
2022-11-19T22:09:01.561Z,1.44
2022-11-19T22:11:29.211Z,1.29
2022-11-19T22:13:56.751Z,1.34
2022-11-19T22:16:23.348Z,1.52
2022-11-19T22:18:50.956Z,1.40
2022-11-19T22:21:17.532Z,1.52
2022-11-19T22:23:44.132Z,1.88
2022-11-19T22:26:11.721Z,1.67
2022-11-19T22:28:38.320Z,1.78
2022-11-19T22:31:05.130Z,2.00
2022-11-19T22:33:32.502Z,1.78
2022-11-19T22:35:59.097Z,2.05
2022-11-19T22:38:25.698Z,1.68
2022-11-19T22:40:52.275Z,1.87
2022-11-19T22:43:22.717Z,1.73
2022-11-19T22:45:50.495Z,1.76
2022-11-19T22:48:18.103Z,1.75
2022-11-19T22:50:44.501Z,1.71
2022-11-19T22:53:10.864Z,1.53
2022-11-19T22:55:37.335Z,1.60
2022-11-19T22:58:03.714Z,1.59
2022-11-19T23:00:30.148Z,1.39
2022-11-19T23:02:56.724Z,1.67
2022-11-19T23:05:23.164Z,1.56
2022-11-19T23:07:49.545Z,1.36
2022-11-19T23:10:15.959Z,1.65
2022-11-19T23:12:42.400Z,1.38
2022-11-19T23:15:08.875Z,1.35
2022-11-19T23:17:35.278Z,1.37
2022-11-19T23:20:04.610Z,1.30
2022-11-19T23:22:31.506Z,1.09
2022-11-19T23:24:58.027Z,1.27
2022-11-19T23:27:24.552Z,1.28
2022-11-19T23:29:50.978Z,1.18
2022-11-19T23:32:17.367Z,1.01
2022-11-19T23:34:43.785Z,1.15
2022-11-19T23:37:10.171Z,1.10
2022-11-19T23:39:36.621Z,1.22
2022-11-19T23:42:03.047Z,1.14
2022-11-19T23:44:29.467Z,1.13
2022-11-19T23:46:55.877Z,1.38
2022-11-19T23:49:22.556Z,1.11
2022-11-19T23:51:49.175Z,1.07
2022-11-19T23:54:15.581Z,1.07
2022-11-19T23:56:42.041Z,1.13
2022-11-19T23:59:08.461Z,1.12
